sensor_id;sensor_type;location;lat;lon;timestamp;pressure;altitude;pressure_sealevel;temperature;humidity
78717;BME280;68045;50.042;14.432;2024-03-29T00:00:04;97083.34;;;7.40;64.09
78717;BME280;68045;50.042;14.432;2024-03-29T00:04:33;97090.44;;;7.40;63.82
78717;BME280;68045;50.042;14.432;2024-03-29T00:08:34;97074.09;;;7.38;64.50
78717;BME280;68045;50.042;14.432;2024-03-29T00:12:36;97075.38;;;7.35;63.96
78717;BME280;68045;50.042;14.432;2024-03-29T00:16:37;97092.72;;;7.36;64.24
78717;BME280;68045;50.042;14.432;2024-03-29T00:20:38;97102.56;;;7.29;64.85
78717;BME280;68045;50.042;14.432;2024-03-29T00:24:39;97104.06;;;7.25;64.57
78717;BME280;68045;50.042;14.432;2024-03-29T00:28:40;97099.78;;;7.19;65.16
78717;BME280;68045;50.042;14.432;2024-03-29T00:32:41;97122.19;;;7.10;65.39
78717;BME280;68045;50.042;14.432;2024-03-29T00:36:42;97119.31;;;7.11;65.26
78717;BME280;68045;50.042;14.432;2024-03-29T00:40:43;97135.25;;;6.93;65.72
78717;BME280;68045;50.042;14.432;2024-03-29T00:44:44;97144.03;;;6.99;65.63
78717;BME280;68045;50.042;14.432;2024-03-29T00:48:46;97152.50;;;6.89;66.27
78717;BME280;68045;50.042;14.432;2024-03-29T00:52:47;97141.41;;;6.99;65.82
78717;BME280;68045;50.042;14.432;2024-03-29T00:56:49;97147.59;;;6.93;65.53
78717;BME280;68045;50.042;14.432;2024-03-29T01:00:51;97141.44;;;6.87;66.38
78717;BME280;68045;50.042;14.432;2024-03-29T01:04:52;97119.63;;;6.98;65.39
78717;BME280;68045;50.042;14.432;2024-03-29T01:08:53;97126.03;;;6.91;65.75
78717;BME280;68045;50.042;14.432;2024-03-29T01:12:54;97132.22;;;6.84;65.81
78717;BME280;68045;50.042;14.432;2024-03-29T01:16:55;97124.69;;;6.88;65.56
78717;BME280;68045;50.042;14.432;2024-03-29T01:20:56;97131.34;;;6.79;66.74
78717;BME280;68045;50.042;14.432;2024-03-29T01:24:57;97135.53;;;6.80;66.27
78717;BME280;68045;50.042;14.432;2024-03-29T01:28:58;97129.13;;;6.87;66.34
78717;BME280;68045;50.042;14.432;2024-03-29T01:32:59;97130.53;;;6.78;66.19
78717;BME280;68045;50.042;14.432;2024-03-29T01:37:00;97130.44;;;6.73;67.00
78717;BME280;68045;50.042;14.432;2024-03-29T01:41:01;97128.88;;;6.60;67.03
78717;BME280;68045;50.042;14.432;2024-03-29T01:45:04;97131.31;;;6.50;67.60
78717;BME280;68045;50.042;14.432;2024-03-29T01:49:06;97121.88;;;6.38;68.67
78717;BME280;68045;50.042;14.432;2024-03-29T01:53:08;97122.00;;;6.31;68.38
78717;BME280;68045;50.042;14.432;2024-03-29T01:57:10;97109.44;;;6.33;69.10
78717;BME280;68045;50.042;14.432;2024-03-29T02:01:12;97115.97;;;6.19;69.08
78717;BME280;68045;50.042;14.432;2024-03-29T02:05:14;97127.34;;;6.13;69.38
78717;BME280;68045;50.042;14.432;2024-03-29T02:09:15;97128.63;;;6.10;69.21
78717;BME280;68045;50.042;14.432;2024-03-29T02:13:16;97141.03;;;6.03;69.60
78717;BME280;68045;50.042;14.432;2024-03-29T02:17:16;97134.78;;;6.04;69.50
78717;BME280;68045;50.042;14.432;2024-03-29T02:21:17;97138.22;;;5.93;70.22
78717;BME280;68045;50.042;14.432;2024-03-29T02:25:19;97137.19;;;5.94;70.42
78717;BME280;68045;50.042;14.432;2024-03-29T02:29:20;97142.13;;;5.84;70.78
78717;BME280;68045;50.042;14.432;2024-03-29T02:33:21;97138.16;;;5.81;70.34
78717;BME280;68045;50.042;14.432;2024-03-29T02:37:22;97139.03;;;5.63;71.39
78717;BME280;68045;50.042;14.432;2024-03-29T02:41:24;97142.03;;;5.67;71.41
78717;BME280;68045;50.042;14.432;2024-03-29T02:45:26;97134.84;;;5.62;71.80
78717;BME280;68045;50.042;14.432;2024-03-29T02:49:27;97145.41;;;5.56;72.04
78717;BME280;68045;50.042;14.432;2024-03-29T02:53:30;97146.00;;;5.58;71.81
78717;BME280;68045;50.042;14.432;2024-03-29T02:57:31;97153.16;;;5.50;71.72
78717;BME280;68045;50.042;14.432;2024-03-29T03:01:32;97165.91;;;5.59;72.00
78717;BME280;68045;50.042;14.432;2024-03-29T03:05:33;97173.72;;;5.47;72.17
78717;BME280;68045;50.042;14.432;2024-03-29T03:09:37;97153.78;;;5.34;72.84
78717;BME280;68045;50.042;14.432;2024-03-29T03:13:56;97177.13;;;5.36;72.64
78717;BME280;68045;50.042;14.432;2024-03-29T03:17:57;97159.38;;;5.38;73.06
78717;BME280;68045;50.042;14.432;2024-03-29T03:21:58;97149.91;;;5.25;72.83
78717;BME280;68045;50.042;14.432;2024-03-29T03:26:01;97164.78;;;5.24;73.37
78717;BME280;68045;50.042;14.432;2024-03-29T03:30:05;97159.47;;;5.31;72.97
78717;BME280;68045;50.042;14.432;2024-03-29T03:34:06;97162.03;;;5.19;73.06
78717;BME280;68045;50.042;14.432;2024-03-29T03:38:07;97147.06;;;5.27;73.13
78717;BME280;68045;50.042;14.432;2024-03-29T03:42:09;97145.59;;;5.31;72.71
78717;BME280;68045;50.042;14.432;2024-03-29T03:46:10;97134.09;;;5.32;73.09
78717;BME280;68045;50.042;14.432;2024-03-29T03:50:11;97148.22;;;5.42;72.33
78717;BME280;68045;50.042;14.432;2024-03-29T03:54:12;97138.78;;;5.41;72.49
78717;BME280;68045;50.042;14.432;2024-03-29T03:58:13;97135.72;;;5.44;71.82
78717;BME280;68045;50.042;14.432;2024-03-29T04:02:14;97121.25;;;5.42;71.88
78717;BME280;68045;50.042;14.432;2024-03-29T04:06:15;97126.03;;;5.33;72.38
78717;BME280;68045;50.042;14.432;2024-03-29T04:10:16;97142.00;;;5.43;72.33
78717;BME280;68045;50.042;14.432;2024-03-29T04:14:17;97144.91;;;5.35;72.76
78717;BME280;68045;50.042;14.432;2024-03-29T04:18:18;97145.91;;;5.22;72.75
78717;BME280;68045;50.042;14.432;2024-03-29T04:22:19;97129.53;;;5.27;72.70
78717;BME280;68045;50.042;14.432;2024-03-29T04:26:20;97139.81;;;5.29;72.69
78717;BME280;68045;50.042;14.432;2024-03-29T04:30:21;97139.22;;;5.27;72.36
78717;BME280;68045;50.042;14.432;2024-03-29T04:34:22;97126.59;;;5.35;72.24
78717;BME280;68045;50.042;14.432;2024-03-29T04:38:24;97115.59;;;5.45;71.44
78717;BME280;68045;50.042;14.432;2024-03-29T04:42:25;97123.25;;;5.58;70.81
78717;BME280;68045;50.042;14.432;2024-03-29T04:46:26;97124.50;;;5.67;70.94
78717;BME280;68045;50.042;14.432;2024-03-29T04:50:29;97133.34;;;5.55;71.40
78717;BME280;68045;50.042;14.432;2024-03-29T04:54:31;97159.53;;;5.55;71.02
78717;BME280;68045;50.042;14.432;2024-03-29T04:58:32;97165.09;;;5.46;71.81
78717;BME280;68045;50.042;14.432;2024-03-29T05:02:33;97165.50;;;5.32;71.66
78717;BME280;68045;50.042;14.432;2024-03-29T05:06:34;97154.16;;;5.49;71.75
78717;BME280;68045;50.042;14.432;2024-03-29T05:10:35;97160.50;;;5.42;72.26
78717;BME280;68045;50.042;14.432;2024-03-29T05:14:36;97153.91;;;5.39;72.08
78717;BME280;68045;50.042;14.432;2024-03-29T05:18:37;97164.50;;;5.44;71.85
78717;BME280;68045;50.042;14.432;2024-03-29T05:22:38;97155.41;;;5.47;72.24
78717;BME280;68045;50.042;14.432;2024-03-29T05:26:39;97142.44;;;5.40;72.00
78717;BME280;68045;50.042;14.432;2024-03-29T05:30:40;97139.63;;;5.65;70.43
78717;BME280;68045;50.042;14.432;2024-03-29T05:34:41;97145.06;;;5.64;70.83
78717;BME280;68045;50.042;14.432;2024-03-29T05:38:42;97147.72;;;5.75;70.44
78717;BME280;68045;50.042;14.432;2024-03-29T05:42:44;97147.50;;;5.65;70.43
78717;BME280;68045;50.042;14.432;2024-03-29T05:46:44;97142.59;;;5.69;70.24
78717;BME280;68045;50.042;14.432;2024-03-29T05:50:45;97152.03;;;5.58;71.38
78717;BME280;68045;50.042;14.432;2024-03-29T05:54:46;97168.09;;;5.73;70.67
78717;BME280;68045;50.042;14.432;2024-03-29T05:58:47;97173.06;;;5.63;70.85
78717;BME280;68045;50.042;14.432;2024-03-29T06:02:48;97171.03;;;5.65;71.29
78717;BME280;68045;50.042;14.432;2024-03-29T06:06:49;97170.00;;;5.55;71.22
78717;BME280;68045;50.042;14.432;2024-03-29T06:10:51;97180.91;;;5.63;70.90
78717;BME280;68045;50.042;14.432;2024-03-29T06:14:53;97182.09;;;5.79;70.95
78717;BME280;68045;50.042;14.432;2024-03-29T06:19:12;97191.88;;;5.84;69.54
78717;BME280;68045;50.042;14.432;2024-03-29T06:23:14;97181.50;;;5.77;70.81
78717;BME280;68045;50.042;14.432;2024-03-29T06:27:15;97173.59;;;6.19;69.56
78717;BME280;68045;50.042;14.432;2024-03-29T06:31:18;97179.72;;;6.48;67.36
78717;BME280;68045;50.042;14.432;2024-03-29T06:35:18;97189.56;;;6.81;67.39
78717;BME280;68045;50.042;14.432;2024-03-29T06:39:22;97177.78;;;6.95;65.68
78717;BME280;68045;50.042;14.432;2024-03-29T06:43:23;97192.69;;;7.35;64.11
78717;BME280;68045;50.042;14.432;2024-03-29T06:47:27;97215.00;;;7.66;62.37
78717;BME280;68045;50.042;14.432;2024-03-29T06:51:29;97193.56;;;7.69;61.61
78717;BME280;68045;50.042;14.432;2024-03-29T06:55:31;97203.25;;;8.02;60.08
78717;BME280;68045;50.042;14.432;2024-03-29T06:59:32;97207.31;;;8.26;59.11
78717;BME280;68045;50.042;14.432;2024-03-29T07:03:33;97203.22;;;8.52;58.71
78717;BME280;68045;50.042;14.432;2024-03-29T07:07:34;97179.75;;;8.68;58.17
78717;BME280;68045;50.042;14.432;2024-03-29T07:11:35;97178.34;;;8.60;57.77
78717;BME280;68045;50.042;14.432;2024-03-29T07:15:37;97178.75;;;9.18;55.90
78717;BME280;68045;50.042;14.432;2024-03-29T07:19:38;97185.22;;;9.59;54.66
78717;BME280;68045;50.042;14.432;2024-03-29T07:23:39;97180.03;;;10.01;53.04
78717;BME280;68045;50.042;14.432;2024-03-29T07:27:40;97176.84;;;10.41;51.14
78717;BME280;68045;50.042;14.432;2024-03-29T07:31:42;97157.13;;;11.22;48.73
78717;BME280;68045;50.042;14.432;2024-03-29T07:35:44;97154.25;;;11.69;47.89
78717;BME280;68045;50.042;14.432;2024-03-29T07:39:45;97147.41;;;11.94;46.84
78717;BME280;68045;50.042;14.432;2024-03-29T07:43:51;97150.56;;;11.75;47.00
78717;BME280;68045;50.042;14.432;2024-03-29T07:47:53;97155.63;;;11.87;46.00
78717;BME280;68045;50.042;14.432;2024-03-29T07:51:54;97128.94;;;12.79;43.30
78717;BME280;68045;50.042;14.432;2024-03-29T07:55:55;97130.78;;;12.83;42.37
78717;BME280;68045;50.042;14.432;2024-03-29T07:59:56;97115.41;;;12.80;41.88
78717;BME280;68045;50.042;14.432;2024-03-29T08:03:57;97121.66;;;12.45;42.20
78717;BME280;68045;50.042;14.432;2024-03-29T08:07:58;97108.41;;;12.50;42.53
78717;BME280;68045;50.042;14.432;2024-03-29T08:11:59;97125.31;;;12.59;41.87
78717;BME280;68045;50.042;14.432;2024-03-29T08:16:00;97120.72;;;13.30;41.00
78717;BME280;68045;50.042;14.432;2024-03-29T08:20:01;97117.59;;;13.91;39.36
78717;BME280;68045;50.042;14.432;2024-03-29T08:24:04;97110.03;;;14.56;37.59
78717;BME280;68045;50.042;14.432;2024-03-29T08:28:05;97114.13;;;14.91;36.14
78717;BME280;68045;50.042;14.432;2024-03-29T08:32:06;97100.91;;;16.08;34.54
78717;BME280;68045;50.042;14.432;2024-03-29T08:36:08;97106.06;;;16.59;32.91
78717;BME280;68045;50.042;14.432;2024-03-29T08:40:10;97129.47;;;17.26;32.33
78717;BME280;68045;50.042;14.432;2024-03-29T08:44:11;97122.59;;;16.97;29.68
78717;BME280;68045;50.042;14.432;2024-03-29T08:48:12;97105.34;;;18.29;27.36
78717;BME280;68045;50.042;14.432;2024-03-29T08:52:13;97132.38;;;18.28;25.89
78717;BME280;68045;50.042;14.432;2024-03-29T08:56:15;97112.22;;;18.22;25.04
78717;BME280;68045;50.042;14.432;2024-03-29T09:00:16;97111.25;;;19.14;24.30
78717;BME280;68045;50.042;14.432;2024-03-29T09:04:17;97119.00;;;18.67;23.98
78717;BME280;68045;50.042;14.432;2024-03-29T09:08:18;97091.88;;;19.52;23.30
78717;BME280;68045;50.042;14.432;2024-03-29T09:12:19;97070.19;;;20.18;22.88
78717;BME280;68045;50.042;14.432;2024-03-29T09:16:20;97074.41;;;22.15;19.98
78717;BME280;68045;50.042;14.432;2024-03-29T09:20:22;97073.63;;;21.82;19.86
78717;BME280;68045;50.042;14.432;2024-03-29T09:24:23;97065.09;;;24.77;17.05
78717;BME280;68045;50.042;14.432;2024-03-29T09:28:26;97067.22;;;24.21;17.13
78717;BME280;68045;50.042;14.432;2024-03-29T09:32:27;97052.28;;;23.64;18.04
78717;BME280;68045;50.042;14.432;2024-03-29T09:36:29;97060.44;;;24.11;17.60
78717;BME280;68045;50.042;14.432;2024-03-29T09:40:30;97050.75;;;25.89;16.07
78717;BME280;68045;50.042;14.432;2024-03-29T09:44:34;97054.16;;;26.55;15.54
78717;BME280;68045;50.042;14.432;2024-03-29T09:48:37;97040.13;;;26.72;15.49
78717;BME280;68045;50.042;14.432;2024-03-29T09:52:39;97042.34;;;26.67;15.52
78717;BME280;68045;50.042;14.432;2024-03-29T09:56:41;97039.41;;;25.80;15.82
78717;BME280;68045;50.042;14.432;2024-03-29T10:00:42;97042.91;;;27.73;13.84
78717;BME280;68045;50.042;14.432;2024-03-29T10:04:45;97024.63;;;28.07;13.85
78717;BME280;68045;50.042;14.432;2024-03-29T10:08:47;97023.38;;;29.08;12.80
78717;BME280;68045;50.042;14.432;2024-03-29T10:12:49;97013.03;;;28.65;13.00
78717;BME280;68045;50.042;14.432;2024-03-29T10:16:52;96992.84;;;30.78;11.88
78717;BME280;68045;50.042;14.432;2024-03-29T10:21:01;97006.13;;;30.23;11.66
78717;BME280;68045;50.042;14.432;2024-03-29T10:25:02;97016.94;;;31.78;10.97
78717;BME280;68045;50.042;14.432;2024-03-29T10:29:03;97013.00;;;28.58;12.72
78717;BME280;68045;50.042;14.432;2024-03-29T10:33:05;97002.78;;;29.03;12.58
78717;BME280;68045;50.042;14.432;2024-03-29T10:37:07;96979.69;;;30.27;11.92
78717;BME280;68045;50.042;14.432;2024-03-29T10:41:08;97001.81;;;30.57;11.29
78717;BME280;68045;50.042;14.432;2024-03-29T10:45:10;96991.31;;;30.59;11.29
78717;BME280;68045;50.042;14.432;2024-03-29T10:49:11;96983.94;;;32.10;10.27
78717;BME280;68045;50.042;14.432;2024-03-29T10:53:12;96976.84;;;32.61;9.51
78717;BME280;68045;50.042;14.432;2024-03-29T10:57:21;96957.38;;;32.56;10.08
78717;BME280;68045;50.042;14.432;2024-03-29T11:01:23;96964.25;;;31.26;10.97
78717;BME280;68045;50.042;14.432;2024-03-29T11:05:26;96952.44;;;32.43;10.80
78717;BME280;68045;50.042;14.432;2024-03-29T11:09:31;96950.81;;;32.08;11.06
78717;BME280;68045;50.042;14.432;2024-03-29T11:17:54;96924.31;;;33.42;10.10
78717;BME280;68045;50.042;14.432;2024-03-29T11:21:55;96939.16;;;29.22;12.78
78717;BME280;68045;50.042;14.432;2024-03-29T11:25:58;96936.91;;;27.48;14.08
78717;BME280;68045;50.042;14.432;2024-03-29T11:30:01;96966.06;;;23.79;17.18
78717;BME280;68045;50.042;14.432;2024-03-29T11:34:03;96952.28;;;24.32;17.08
78717;BME280;68045;50.042;14.432;2024-03-29T11:38:04;96959.88;;;23.47;18.19
78717;BME280;68045;50.042;14.432;2024-03-29T11:42:05;97007.03;;;21.87;19.63
78717;BME280;68045;50.042;14.432;2024-03-29T11:46:08;96960.91;;;20.95;21.20
78717;BME280;68045;50.042;14.432;2024-03-29T11:50:09;96974.44;;;20.77;21.43
78717;BME280;68045;50.042;14.432;2024-03-29T11:54:11;96959.91;;;20.57;21.98
78717;BME280;68045;50.042;14.432;2024-03-29T11:58:13;96946.25;;;20.21;22.09
78717;BME280;68045;50.042;14.432;2024-03-29T12:02:14;96988.63;;;19.60;23.58
78717;BME280;68045;50.042;14.432;2024-03-29T12:06:15;96974.09;;;19.69;23.90
78717;BME280;68045;50.042;14.432;2024-03-29T12:10:18;96986.44;;;19.91;24.13
78717;BME280;68045;50.042;14.432;2024-03-29T12:14:18;96993.25;;;19.80;24.49
78717;BME280;68045;50.042;14.432;2024-03-29T12:18:21;97001.19;;;20.06;24.62
78717;BME280;68045;50.042;14.432;2024-03-29T12:22:22;96997.38;;;20.16;24.42
78717;BME280;68045;50.042;14.432;2024-03-29T12:26:23;96995.72;;;19.94;24.95
78717;BME280;68045;50.042;14.432;2024-03-29T12:30:24;96993.16;;;20.36;24.50
78717;BME280;68045;50.042;14.432;2024-03-29T12:34:25;96983.00;;;23.20;21.61
78717;BME280;68045;50.042;14.432;2024-03-29T12:38:26;96964.75;;;29.07;16.01
78717;BME280;68045;50.042;14.432;2024-03-29T12:42:27;96957.47;;;31.52;14.04
78717;BME280;68045;50.042;14.432;2024-03-29T12:46:29;96954.38;;;28.54;15.59
78717;BME280;68045;50.042;14.432;2024-03-29T12:50:33;96959.50;;;26.36;17.71
78717;BME280;68045;50.042;14.432;2024-03-29T12:54:34;96964.94;;;26.62;17.61
78717;BME280;68045;50.042;14.432;2024-03-29T12:58:35;96949.81;;;27.62;17.01
78717;BME280;68045;50.042;14.432;2024-03-29T13:02:38;96938.22;;;28.79;15.69
78717;BME280;68045;50.042;14.432;2024-03-29T13:06:39;96940.44;;;27.52;17.46
78717;BME280;68045;50.042;14.432;2024-03-29T13:10:40;96923.88;;;28.78;15.84
78717;BME280;68045;50.042;14.432;2024-03-29T13:14:41;96927.22;;;27.47;17.33
78717;BME280;68045;50.042;14.432;2024-03-29T13:18:42;96938.75;;;27.03;17.97
78717;BME280;68045;50.042;14.432;2024-03-29T13:22:43;96940.09;;;28.64;16.64
78717;BME280;68045;50.042;14.432;2024-03-29T13:26:46;96930.28;;;26.75;17.91
78717;BME280;68045;50.042;14.432;2024-03-29T13:30:47;96927.16;;;25.44;19.83
78717;BME280;68045;50.042;14.432;2024-03-29T13:34:50;96920.25;;;26.45;18.68
78717;BME280;68045;50.042;14.432;2024-03-29T13:38:51;96917.50;;;29.90;15.69
78717;BME280;68045;50.042;14.432;2024-03-29T13:42:52;96928.00;;;30.09;15.59
78717;BME280;68045;50.042;14.432;2024-03-29T13:46:55;96920.19;;;28.38;16.93
78717;BME280;68045;50.042;14.432;2024-03-29T13:50:56;96913.25;;;27.04;18.14
78717;BME280;68045;50.042;14.432;2024-03-29T13:54:57;96913.66;;;26.16;19.12
78717;BME280;68045;50.042;14.432;2024-03-29T13:58:58;96904.00;;;25.66;19.71
78717;BME280;68045;50.042;14.432;2024-03-29T14:02:59;96905.56;;;24.82;20.50
78717;BME280;68045;50.042;14.432;2024-03-29T14:07:01;96883.75;;;24.91;20.81
78717;BME280;68045;50.042;14.432;2024-03-29T14:11:03;96903.00;;;24.89;20.94
78717;BME280;68045;50.042;14.432;2024-03-29T14:15:05;96879.31;;;24.25;22.27
78717;BME280;68045;50.042;14.432;2024-03-29T14:19:07;96878.25;;;23.94;22.33
78717;BME280;68045;50.042;14.432;2024-03-29T14:23:08;96864.88;;;23.98;22.37
78717;BME280;68045;50.042;14.432;2024-03-29T14:27:12;96863.00;;;23.82;23.09
78717;BME280;68045;50.042;14.432;2024-03-29T14:31:13;96873.22;;;23.45;23.36
78717;BME280;68045;50.042;14.432;2024-03-29T14:35:14;96868.69;;;23.02;23.81
78717;BME280;68045;50.042;14.432;2024-03-29T14:39:15;96889.34;;;22.30;24.84
78717;BME280;68045;50.042;14.432;2024-03-29T14:43:18;96881.25;;;22.42;24.75
78717;BME280;68045;50.042;14.432;2024-03-29T14:47:19;96879.97;;;22.92;24.54
78717;BME280;68045;50.042;14.432;2024-03-29T14:51:20;96864.56;;;22.77;24.75
78717;BME280;68045;50.042;14.432;2024-03-29T14:55:22;96860.38;;;23.07;24.53
78717;BME280;68045;50.042;14.432;2024-03-29T14:59:24;96876.69;;;22.98;25.12
78717;BME280;68045;50.042;14.432;2024-03-29T15:03:25;96862.38;;;24.08;23.98
78717;BME280;68045;50.042;14.432;2024-03-29T15:07:26;96851.47;;;24.56;23.64
78717;BME280;68045;50.042;14.432;2024-03-29T15:11:27;96858.25;;;25.31;22.67
78717;BME280;68045;50.042;14.432;2024-03-29T15:15:28;96843.03;;;26.92;20.93
78717;BME280;68045;50.042;14.432;2024-03-29T15:19:29;96854.94;;;26.17;21.26
78717;BME280;68045;50.042;14.432;2024-03-29T15:23:30;96864.84;;;25.33;23.15
78717;BME280;68045;50.042;14.432;2024-03-29T15:27:31;96854.53;;;26.15;22.27
78717;BME280;68045;50.042;14.432;2024-03-29T15:31:50;96850.19;;;25.34;23.27
78717;BME280;68045;50.042;14.432;2024-03-29T15:35:51;96862.28;;;23.38;25.61
78717;BME280;68045;50.042;14.432;2024-03-29T15:39:53;96854.47;;;21.93;27.86
78717;BME280;68045;50.042;14.432;2024-03-29T15:43:54;96854.47;;;21.56;28.63
78717;BME280;68045;50.042;14.432;2024-03-29T15:47:55;96844.66;;;21.03;29.64
78717;BME280;68045;50.042;14.432;2024-03-29T15:51:56;96852.47;;;20.96;29.42
78717;BME280;68045;50.042;14.432;2024-03-29T15:55:57;96821.94;;;20.88;30.02
78717;BME280;68045;50.042;14.432;2024-03-29T15:59:59;96822.59;;;20.85;30.02
78717;BME280;68045;50.042;14.432;2024-03-29T16:04:00;96825.75;;;20.87;30.54
78717;BME280;68045;50.042;14.432;2024-03-29T16:08:01;96818.56;;;20.79;30.46
78717;BME280;68045;50.042;14.432;2024-03-29T16:12:02;96811.25;;;20.55;30.61
78717;BME280;68045;50.042;14.432;2024-03-29T16:16:05;96806.84;;;20.50;30.67
78717;BME280;68045;50.042;14.432;2024-03-29T16:20:07;96799.94;;;20.49;31.59
78717;BME280;68045;50.042;14.432;2024-03-29T16:24:08;96822.63;;;20.31;32.74
78717;BME280;68045;50.042;14.432;2024-03-29T16:28:12;96808.25;;;20.15;33.10
78717;BME280;68045;50.042;14.432;2024-03-29T16:32:15;96817.06;;;20.15;33.28
78717;BME280;68045;50.042;14.432;2024-03-29T16:36:16;96823.88;;;19.92;33.72
78717;BME280;68045;50.042;14.432;2024-03-29T16:40:17;96847.09;;;19.79;33.79
78717;BME280;68045;50.042;14.432;2024-03-29T16:44:18;96840.91;;;19.58;33.85
78717;BME280;68045;50.042;14.432;2024-03-29T16:48:19;96846.56;;;19.56;34.35
78717;BME280;68045;50.042;14.432;2024-03-29T16:52:20;96843.50;;;19.37;34.63
78717;BME280;68045;50.042;14.432;2024-03-29T16:56:22;96837.25;;;19.33;34.64
78717;BME280;68045;50.042;14.432;2024-03-29T17:00:23;96832.06;;;19.28;35.05
78717;BME280;68045;50.042;14.432;2024-03-29T17:04:25;96835.09;;;19.17;35.51
78717;BME280;68045;50.042;14.432;2024-03-29T17:08:26;96833.41;;;19.04;35.97
78717;BME280;68045;50.042;14.432;2024-03-29T17:12:27;96844.94;;;18.96;36.33
78717;BME280;68045;50.042;14.432;2024-03-29T17:16:28;96846.03;;;18.86;36.66
78717;BME280;68045;50.042;14.432;2024-03-29T17:20:29;96844.50;;;18.68;37.60
78717;BME280;68045;50.042;14.432;2024-03-29T17:24:30;96863.97;;;18.51;38.40
78717;BME280;68045;50.042;14.432;2024-03-29T17:28:31;96859.91;;;18.45;38.68
78717;BME280;68045;50.042;14.432;2024-03-29T17:32:32;96858.97;;;18.41;39.24
78717;BME280;68045;50.042;14.432;2024-03-29T17:36:32;96853.63;;;18.32;39.67
78717;BME280;68045;50.042;14.432;2024-03-29T17:40:33;96855.03;;;18.30;39.97
78717;BME280;68045;50.042;14.432;2024-03-29T17:44:34;96852.50;;;18.25;40.60
78717;BME280;68045;50.042;14.432;2024-03-29T17:48:35;96864.94;;;18.12;41.21
78717;BME280;68045;50.042;14.432;2024-03-29T17:52:37;96853.75;;;18.10;41.41
78717;BME280;68045;50.042;14.432;2024-03-29T17:56:39;96864.13;;;18.03;41.62
78717;BME280;68045;50.042;14.432;2024-03-29T18:00:40;96859.28;;;18.14;41.68
78717;BME280;68045;50.042;14.432;2024-03-29T18:04:41;96862.25;;;18.12;42.10
78717;BME280;68045;50.042;14.432;2024-03-29T18:08:42;96863.66;;;17.92;42.62
78717;BME280;68045;50.042;14.432;2024-03-29T18:12:43;96872.44;;;17.93;42.73
78717;BME280;68045;50.042;14.432;2024-03-29T18:16:44;96863.78;;;17.96;42.99
78717;BME280;68045;50.042;14.432;2024-03-29T18:20:46;96878.69;;;17.88;43.06
78717;BME280;68045;50.042;14.432;2024-03-29T18:24:47;96890.00;;;17.85;42.95
78717;BME280;68045;50.042;14.432;2024-03-29T18:28:48;96890.78;;;17.86;43.04
78717;BME280;68045;50.042;14.432;2024-03-29T18:32:49;96895.50;;;17.80;43.50
78717;BME280;68045;50.042;14.432;2024-03-29T18:36:50;96895.16;;;17.73;43.43
78717;BME280;68045;50.042;14.432;2024-03-29T18:40:51;96902.31;;;17.64;43.82
78717;BME280;68045;50.042;14.432;2024-03-29T18:44:53;96896.47;;;17.53;44.21
78717;BME280;68045;50.042;14.432;2024-03-29T18:48:54;96890.00;;;17.45;44.60
78717;BME280;68045;50.042;14.432;2024-03-29T18:52:54;96884.19;;;17.43;44.83
78717;BME280;68045;50.042;14.432;2024-03-29T18:56:55;96892.97;;;17.44;44.58
78717;BME280;68045;50.042;14.432;2024-03-29T19:00:58;96892.06;;;17.48;44.97
78717;BME280;68045;50.042;14.432;2024-03-29T19:04:59;96898.44;;;17.39;44.87
78717;BME280;68045;50.042;14.432;2024-03-29T19:09:01;96883.38;;;17.34;45.40
78717;BME280;68045;50.042;14.432;2024-03-29T19:13:02;96889.63;;;17.29;45.51
78717;BME280;68045;50.042;14.432;2024-03-29T19:17:03;96887.88;;;17.25;45.44
78717;BME280;68045;50.042;14.432;2024-03-29T19:21:04;96882.28;;;17.04;46.01
78717;BME280;68045;50.042;14.432;2024-03-29T19:25:06;96881.69;;;17.07;46.08
78717;BME280;68045;50.042;14.432;2024-03-29T19:29:07;96894.78;;;16.95;46.79
78717;BME280;68045;50.042;14.432;2024-03-29T19:33:08;96900.09;;;16.95;46.85
78717;BME280;68045;50.042;14.432;2024-03-29T19:37:09;96894.00;;;16.94;47.14
78717;BME280;68045;50.042;14.432;2024-03-29T19:41:11;96890.69;;;16.97;46.92
78717;BME280;68045;50.042;14.432;2024-03-29T19:45:11;96898.22;;;16.95;46.71
78717;BME280;68045;50.042;14.432;2024-03-29T19:49:12;96905.44;;;16.95;46.91
78717;BME280;68045;50.042;14.432;2024-03-29T19:53:18;96901.94;;;16.86;47.25
78717;BME280;68045;50.042;14.432;2024-03-29T19:57:19;96919.25;;;16.74;47.67
78717;BME280;68045;50.042;14.432;2024-03-29T20:01:20;96918.34;;;16.79;47.71
78717;BME280;68045;50.042;14.432;2024-03-29T20:05:20;96918.34;;;16.79;47.33
78717;BME280;68045;50.042;14.432;2024-03-29T20:09:22;96905.97;;;16.83;48.01
78717;BME280;68045;50.042;14.432;2024-03-29T20:13:24;96917.84;;;16.77;47.87
78717;BME280;68045;50.042;14.432;2024-03-29T20:17:24;96905.34;;;16.78;48.20
78717;BME280;68045;50.042;14.432;2024-03-29T20:21:26;96904.25;;;16.79;47.80
78717;BME280;68045;50.042;14.432;2024-03-29T20:25:26;96918.06;;;16.67;48.26
78717;BME280;68045;50.042;14.432;2024-03-29T20:29:28;96918.78;;;16.72;47.99
78717;BME280;68045;50.042;14.432;2024-03-29T20:33:30;96915.50;;;16.62;48.44
78717;BME280;68045;50.042;14.432;2024-03-29T20:37:31;96915.03;;;16.60;48.45
78717;BME280;68045;50.042;14.432;2024-03-29T20:41:32;96922.84;;;16.56;48.67
78717;BME280;68045;50.042;14.432;2024-03-29T20:45:33;96910.91;;;16.54;48.42
78717;BME280;68045;50.042;14.432;2024-03-29T20:49:34;96906.38;;;16.54;48.57
78717;BME280;68045;50.042;14.432;2024-03-29T20:53:36;96912.00;;;16.53;48.79
78717;BME280;68045;50.042;14.432;2024-03-29T20:57:38;96916.34;;;16.48;48.67
78717;BME280;68045;50.042;14.432;2024-03-29T21:01:39;96913.31;;;16.41;48.65
78717;BME280;68045;50.042;14.432;2024-03-29T21:05:58;96914.47;;;16.49;48.89
78717;BME280;68045;50.042;14.432;2024-03-29T21:09:59;96922.91;;;16.42;48.89